Time;durP1;ratioP1;P1;durP2;ratioP2;P2;SDS_P1;SDS_P2;PMS_P1;PMS_P2;Temp;Humidity;BMP_temperature;BMP_pressure;BME280_temperature;BME280_humidity;BME280_pressure;Samples;Min_cycle;Max_cycle;Signal;HPM_P1;HPM_P2
2022/06/22 00:01:58;;;;;;;8.55;3.40;;;;;;;;;;5079881;28;20468;-71
2022/06/22 00:04:28;;;;;;;5.85;3.10;;;;;;;;;;5063140;28;20017;-71
2022/06/22 00:06:55;;;;;;;8.15;2.78;;;;;;;;;;5081511;28;20016;-71
2022/06/22 00:09:22;;;;;;;8.40;2.97;;;;;;;;;;5087064;28;20024;-71
2022/06/22 00:11:47;;;;;;;9.27;3.47;;;;;;;;;;5077998;28;20044;-71
2022/06/22 00:14:16;;;;;;;7.25;3.35;;;;;;;;;;5075975;28;20028;-71
2022/06/22 00:16:48;;;;;;;13.77;4.10;;;;;;;;;;5072663;28;20377;-71
2022/06/22 00:19:21;;;;;;;9.52;3.78;;;;;;;;;;5060552;28;20065;-71
2022/06/22 00:21:48;;;;;;;12.88;4.25;;;;;;;;;;5080934;28;20021;-71
2022/06/22 00:24:23;;;;;;;8.93;3.75;;;;;;;;;;5091394;28;20047;-71
2022/06/22 00:26:53;;;;;;;7.03;3.80;;;;;;;;;;5091639;28;20044;-71
2022/06/22 00:29:21;;;;;;;6.78;3.83;;;;;;;;;;5091238;28;20024;-71
2022/06/22 00:31:49;;;;;;;8.45;3.60;;;;;;;;;;5088827;28;20123;-71
2022/06/22 00:34:16;;;;;;;12.43;4.30;;;;;;;;;;5060968;28;20031;-71
2022/06/22 00:36:47;;;;;;;9.35;4.30;;;;;;;;;;5071097;28;20013;-71
2022/06/22 00:39:12;;;;;;;10.65;4.10;;;;;;;;;;5079192;28;20103;-71
2022/06/22 00:41:37;;;;;;;7.63;3.95;;;;;;;;;;5073483;28;20100;-71
2022/06/22 00:44:07;;;;;;;7.63;3.53;;;;;;;;;;5078171;28;20008;-71
2022/06/22 00:46:32;;;;;;;6.17;3.50;;;;;;;;;;5076965;28;20262;-71
2022/06/22 00:48:57;;;;;;;6.37;3.87;;;;;;;;;;5069239;28;20495;-71
2022/06/22 00:51:35;;;;;;;6.55;3.58;;;;;;;;;;5073146;28;20737;-72
2022/06/22 00:54:09;;;;;;;6.72;3.47;;;;;;;;;;5087807;22;20044;-90
2022/06/22 00:56:37;;;;;;;6.50;3.90;;;;;;;;;;5014351;23;2122633;-68
2022/06/22 00:59:05;;;;;;;12.68;4.20;;;;;;;;;;5078065;28;20362;-68
2022/06/22 01:01:30;;;;;;;7.57;3.80;;;;;;;;;;5083515;28;20028;-68
2022/06/22 01:03:59;;;;;;;8.30;3.78;;;;;;;;;;5070417;28;20020;-68
2022/06/22 01:06:35;;;;;;;9.73;4.00;;;;;;;;;;5064622;28;20020;-68
2022/06/22 01:09:23;;;;;;;8.32;3.38;;;;;;;;;;5057945;28;20047;-68
2022/06/22 01:14:39;;;;;;;13.30;4.35;;;;;;;;;;5055414;28;20035;-68
2022/06/22 01:17:06;;;;;;;7.38;3.90;;;;;;;;;;5066915;28;20008;-68
2022/06/22 01:19:51;;;;;;;8.88;3.67;;;;;;;;;;5064836;28;20630;-68
2022/06/22 01:22:26;;;;;;;12.57;4.00;;;;;;;;;;5060835;28;20082;-68
2022/06/22 01:25:17;;;;;;;5.80;3.55;;;;;;;;;;5059206;28;20017;-68
2022/06/22 01:27:44;;;;;;;8.32;3.55;;;;;;;;;;5060527;28;20028;-68
2022/06/22 01:30:19;;;;;;;5.75;3.90;;;;;;;;;;5067764;28;20074;-68
2022/06/22 01:32:45;;;;;;;7.30;3.65;;;;;;;;;;5060780;28;20078;-69
2022/06/22 01:35:24;;;;;;;6.88;2.97;;;;;;;;;;5056802;28;20017;-68
2022/06/22 01:37:49;;;;;;;9.20;3.73;;;;;;;;;;5061733;28;20047;-68
2022/06/22 01:40:15;;;;;;;15.40;3.83;;;;;;;;;;5060589;28;20782;-69
2022/06/22 01:42:45;;;;;;;6.87;3.30;;;;;;;;;;5043524;28;20017;-68
2022/06/22 01:45:18;;;;;;;13.98;4.13;;;;;;;;;;5061399;28;20434;-68
2022/06/22 01:48:04;;;;;;;13.25;3.88;;;;;;;;;;5055898;28;20029;-68
2022/06/22 01:50:33;;;;;;;7.00;3.38;;;;;;;;;;4997991;28;20063;-68
2022/06/22 01:53:03;;;;;;;12.07;2.97;;;;;;;;;;5057412;28;20227;-68
2022/06/22 01:55:44;;;;;;;8.50;3.38;;;;;;;;;;5061582;28;20028;-68
2022/06/22 01:58:15;;;;;;;7.57;3.13;;;;;;;;;;5060828;28;20021;-68
2022/06/22 02:00:49;;;;;;;6.18;3.28;;;;;;;;;;5058283;28;20036;-68
2022/06/22 02:03:20;;;;;;;10.15;3.50;;;;;;;;;;5063206;28;20020;-68
2022/06/22 02:05:45;;;;;;;4.75;3.08;;;;;;;;;;5068734;28;20069;-68
2022/06/22 02:08:18;;;;;;;7.03;3.80;;;;;;;;;;5063140;28;20483;-68
2022/06/22 02:10:59;;;;;;;13.63;3.42;;;;;;;;;;5068650;28;20481;-69
2022/06/22 02:13:24;;;;;;;7.07;3.60;;;;;;;;;;5056686;28;20036;-69
2022/06/22 02:15:54;;;;;;;7.60;3.92;;;;;;;;;;5063544;28;20043;-68
2022/06/22 02:18:22;;;;;;;6.38;3.10;;;;;;;;;;5066059;28;20044;-68
2022/06/22 02:20:47;;;;;;;5.53;3.53;;;;;;;;;;5065213;28;20484;-68
2022/06/22 02:23:18;;;;;;;7.13;3.13;;;;;;;;;;5063380;28;20047;-68
2022/06/22 02:26:07;;;;;;;5.82;3.40;;;;;;;;;;5068773;28;20312;-68
2022/06/22 02:28:32;;;;;;;7.30;3.65;;;;;;;;;;5066523;28;20017;-68
2022/06/22 02:30:58;;;;;;;7.93;3.60;;;;;;;;;;5062516;28;20028;-68
2022/06/22 02:33:24;;;;;;;8.43;4.25;;;;;;;;;;5065469;28;20275;-68
2022/06/22 02:35:50;;;;;;;6.07;3.42;;;;;;;;;;5063355;28;20025;-68
2022/06/22 02:38:15;;;;;;;6.32;3.30;;;;;;;;;;5063327;28;20488;-68
2022/06/22 02:46:16;;;;;;;7.78;2.90;;;;;;;;;;5057069;28;20130;-68
2022/06/22 02:48:41;;;;;;;10.85;3.25;;;;;;;;;;5042381;28;20021;-68
2022/06/22 02:51:11;;;;;;;7.32;3.38;;;;;;;;;;5063049;28;20151;-68
2022/06/22 02:53:37;;;;;;;4.15;3.03;;;;;;;;;;5064437;28;20036;-68
2022/06/22 02:56:03;;;;;;;6.57;2.85;;;;;;;;;;5067382;28;20028;-68
2022/06/22 02:58:36;;;;;;;5.18;3.08;;;;;;;;;;5064369;28;20020;-68
2022/06/22 03:01:05;;;;;;;4.70;2.58;;;;;;;;;;5055295;28;20028;-68
2022/06/22 03:03:32;;;;;;;10.43;4.50;;;;;;;;;;5063288;28;20020;-68
2022/06/22 03:05:58;;;;;;;9.55;3.15;;;;;;;;;;5061137;28;20155;-68
2022/06/22 03:08:24;;;;;;;5.70;3.85;;;;;;;;;;5062302;28;20100;-68
2022/06/22 03:10:50;;;;;;;8.02;3.13;;;;;;;;;;5066928;28;20385;-68
2022/06/22 03:13:17;;;;;;;10.43;3.67;;;;;;;;;;5060383;28;20029;-68
2022/06/22 03:15:43;;;;;;;5.68;3.10;;;;;;;;;;5060949;28;20052;-68
2022/06/22 03:18:13;;;;;;;6.90;3.55;;;;;;;;;;5062986;28;20032;-68
2022/06/22 03:20:41;;;;;;;9.10;3.28;;;;;;;;;;5051749;28;20020;-68
2022/06/22 03:23:32;;;;;;;7.97;3.45;;;;;;;;;;5065225;28;20013;-68
2022/06/22 03:26:05;;;;;;;9.27;3.47;;;;;;;;;;5063014;28;20037;-68
2022/06/22 03:28:36;;;;;;;9.45;4.38;;;;;;;;;;5061882;28;20012;-67
2022/06/22 03:31:04;;;;;;;9.82;4.18;;;;;;;;;;5060390;28;20514;-68
2022/06/22 03:33:32;;;;;;;5.07;3.10;;;;;;;;;;5066125;28;20021;-68
2022/06/22 03:36:01;;;;;;;8.95;3.38;;;;;;;;;;5056280;28;20068;-68
2022/06/22 03:38:36;;;;;;;7.15;3.20;;;;;;;;;;5059538;28;20107;-68
2022/06/22 03:41:07;;;;;;;9.32;3.35;;;;;;;;;;5056298;28;20025;-68
2022/06/22 03:43:34;;;;;;;8.50;3.33;;;;;;;;;;5064141;28;20484;-68
2022/06/22 03:46:05;;;;;;;7.18;3.20;;;;;;;;;;5060818;28;20064;-68
2022/06/22 03:48:35;;;;;;;9.63;3.00;;;;;;;;;;5070422;28;20021;-68
2022/06/22 03:51:09;;;;;;;6.80;2.60;;;;;;;;;;5066749;28;20017;-68
2022/06/22 03:53:46;;;;;;;6.55;3.10;;;;;;;;;;5057181;28;20513;-67
2022/06/22 03:56:14;;;;;;;4.68;2.53;;;;;;;;;;5062910;28;20024;-68
2022/06/22 03:58:41;;;;;;;6.53;2.90;;;;;;;;;;5059554;28;20028;-68
2022/06/22 04:01:06;;;;;;;4.45;3.15;;;;;;;;;;5067532;28;20029;-68
2022/06/22 04:03:31;;;;;;;5.20;2.88;;;;;;;;;;5070358;28;20081;-67
2022/06/22 04:05:57;;;;;;;9.90;3.00;;;;;;;;;;5059978;28;20025;-68
2022/06/22 04:08:33;;;;;;;5.82;2.67;;;;;;;;;;5059724;28;20021;-68
2022/06/22 04:11:04;;;;;;;7.30;3.70;;;;;;;;;;5060143;28;20037;-68
2022/06/22 04:13:39;;;;;;;5.15;2.80;;;;;;;;;;5063364;28;20023;-68
2022/06/22 04:16:08;;;;;;;14.15;2.80;;;;;;;;;;5066189;28;20024;-68
2022/06/22 04:18:37;;;;;;;3.95;2.60;;;;;;;;;;5063650;28;20075;-68
2022/06/22 04:21:07;;;;;;;7.78;3.00;;;;;;;;;;5060365;28;20677;-68
2022/06/22 04:23:51;;;;;;;6.80;3.25;;;;;;;;;;5062630;28;20092;-68
2022/06/22 04:26:20;;;;;;;7.88;3.15;;;;;;;;;;5058060;28;20420;-67
2022/06/22 04:28:46;;;;;;;5.95;2.83;;;;;;;;;;5063282;28;20398;-68
2022/06/22 04:31:24;;;;;;;4.95;2.50;;;;;;;;;;5067686;28;20455;-68
2022/06/22 04:33:52;;;;;;;12.07;3.70;;;;;;;;;;5063059;28;20528;-68
2022/06/22 04:36:37;;;;;;;6.47;3.30;;;;;;;;;;5054873;28;20157;-69
2022/06/22 04:39:09;;;;;;;4.55;2.53;;;;;;;;;;5062994;28;20046;-68
2022/06/22 04:41:39;;;;;;;9.40;2.67;;;;;;;;;;5059496;28;20486;-68
2022/06/22 04:44:08;;;;;;;11.73;3.03;;;;;;;;;;5063088;28;20051;-68
2022/06/22 04:46:36;;;;;;;7.10;3.10;;;;;;;;;;5068288;28;20036;-68
2022/06/22 04:49:05;;;;;;;12.30;3.72;;;;;;;;;;5061533;28;20028;-68
2022/06/22 04:51:33;;;;;;;11.52;3.53;;;;;;;;;;5060126;28;20020;-68
2022/06/22 04:54:00;;;;;;;5.18;3.65;;;;;;;;;;5068052;28;20024;-68
2022/06/22 04:56:29;;;;;;;14.63;3.95;;;;;;;;;;5062442;28;20503;-68
2022/06/22 04:58:55;;;;;;;12.18;3.65;;;;;;;;;;5040291;28;20035;-68
2022/06/22 05:01:33;;;;;;;9.90;3.40;;;;;;;;;;5066578;28;20021;-68
2022/06/22 05:04:01;;;;;;;8.38;3.92;;;;;;;;;;5060494;28;20055;-68
2022/06/22 05:06:35;;;;;;;9.00;4.10;;;;;;;;;;5060167;28;20029;-68
2022/06/22 05:09:03;;;;;;;7.57;3.58;;;;;;;;;;5057119;28;20092;-68
2022/06/22 05:11:32;;;;;;;9.20;3.90;;;;;;;;;;5061026;28;20036;-68
2022/06/22 05:13:59;;;;;;;9.38;4.35;;;;;;;;;;5057246;28;20028;-68
2022/06/22 05:16:27;;;;;;;6.38;4.05;;;;;;;;;;5067985;28;20024;-68
2022/06/22 05:18:53;;;;;;;19.38;4.68;;;;;;;;;;5060678;28;20017;-68
2022/06/22 05:21:27;;;;;;;12.23;4.50;;;;;;;;;;5054168;28;20029;-67
2022/06/22 05:23:54;;;;;;;8.82;4.45;;;;;;;;;;5060488;28;20085;-68
2022/06/22 05:26:20;;;;;;;13.70;4.47;;;;;;;;;;5063524;28;20103;-67
2022/06/22 05:28:55;;;;;;;9.68;4.20;;;;;;;;;;5062799;28;20013;-67
2022/06/22 05:31:29;;;;;;;12.50;4.43;;;;;;;;;;5065457;28;20481;-68
2022/06/22 05:33:56;;;;;;;10.98;4.47;;;;;;;;;;5055479;28;20025;-67
2022/06/22 05:36:23;;;;;;;10.15;5.00;;;;;;;;;;5057036;28;20029;-68
2022/06/22 05:38:51;;;;;;;10.98;4.97;;;;;;;;;;5059396;28;20153;-67
2022/06/22 05:41:18;;;;;;;14.98;5.35;;;;;;;;;;5058613;28;20025;-68
2022/06/22 05:43:44;;;;;;;11.10;5.30;;;;;;;;;;5065228;28;20024;-68
2022/06/22 05:46:10;;;;;;;10.13;4.78;;;;;;;;;;5064504;28;20535;-68
2022/06/22 05:48:40;;;;;;;16.88;5.45;;;;;;;;;;5056738;28;20024;-68
2022/06/22 05:51:27;;;;;;;12.85;4.90;;;;;;;;;;5060977;28;20059;-68
2022/06/22 05:54:01;;;;;;;15.15;5.05;;;;;;;;;;5057957;28;20515;-68
2022/06/22 05:56:29;;;;;;;12.70;4.88;;;;;;;;;;5056397;28;20429;-68
2022/06/22 05:58:57;;;;;;;14.75;4.85;;;;;;;;;;5054529;28;20020;-68
2022/06/22 06:01:43;;;;;;;8.65;4.97;;;;;;;;;;5061569;28;20066;-68
2022/06/22 06:04:27;;;;;;;8.45;4.95;;;;;;;;;;5061690;28;20060;-68
2022/06/22 06:06:55;;;;;;;5.90;3.90;;;;;;;;;;5057217;28;20021;-69
2022/06/22 06:09:22;;;;;;;8.15;4.32;;;;;;;;;;5063624;28;20535;-68
2022/06/22 06:11:49;;;;;;;10.98;5.07;;;;;;;;;;5061158;28;20078;-68
2022/06/22 06:14:22;;;;;;;14.25;4.68;;;;;;;;;;5063256;28;20056;-66
2022/06/22 06:16:49;;;;;;;9.15;3.53;;;;;;;;;;5043591;28;20127;-68
2022/06/22 06:19:21;;;;;;;11.38;3.85;;;;;;;;;;5059678;28;20441;-68
2022/06/22 06:21:47;;;;;;;6.75;3.50;;;;;;;;;;5040907;28;20469;-68
2022/06/22 06:24:18;;;;;;;9.07;3.90;;;;;;;;;;5059016;28;20013;-68
2022/06/22 06:29:50;;;;;;;9.30;3.05;;;;;;;;;;5068533;28;20128;-66
2022/06/22 06:32:18;;;;;;;13.38;3.13;;;;;;;;;;5058592;28;20013;-66
2022/06/22 06:34:55;;;;;;;18.13;2.75;;;;;;;;;;5056202;28;20033;-67
2022/06/22 06:37:44;;;;;;;10.73;3.33;;;;;;;;;;5057591;28;20533;-66
2022/06/22 06:40:22;;;;;;;12.20;3.20;;;;;;;;;;5056294;28;20064;-66
2022/06/22 06:43:09;;;;;;;7.63;3.25;;;;;;;;;;5064426;28;20048;-66
2022/06/22 06:45:34;;;;;;;9.52;3.00;;;;;;;;;;5012921;28;20104;-66
2022/06/22 06:48:02;;;;;;;8.43;2.97;;;;;;;;;;5058959;28;20099;-66
2022/06/22 06:50:39;;;;;;;7.13;2.70;;;;;;;;;;5059243;28;20028;-67
2022/06/22 06:53:23;;;;;;;5.95;2.47;;;;;;;;;;5072996;28;20443;-66
2022/06/22 06:55:50;;;;;;;5.72;2.67;;;;;;;;;;5099700;23;20044;-69
2022/06/22 06:58:15;;;;;;;9.48;3.08;;;;;;;;;;5083547;28;20727;-69
2022/06/22 07:00:41;;;;;;;9.80;2.40;;;;;;;;;;5077654;28;20016;-68
2022/06/22 07:03:08;;;;;;;6.10;2.33;;;;;;;;;;5080857;28;20493;-69
2022/06/22 07:05:33;;;;;;;7.88;2.55;;;;;;;;;;5082685;28;20012;-68
2022/06/22 07:08:00;;;;;;;5.43;2.00;;;;;;;;;;5091083;28;20367;-69
2022/06/22 07:10:35;;;;;;;5.95;2.10;;;;;;;;;;5087407;28;20019;-68
2022/06/22 07:13:06;;;;;;;13.57;2.17;;;;;;;;;;5085663;28;20020;-69
2022/06/22 07:15:36;;;;;;;5.05;2.25;;;;;;;;;;5088202;28;20020;-68
2022/06/22 07:18:09;;;;;;;2.45;1.67;;;;;;;;;;5087369;28;20027;-69
2022/06/22 07:20:37;;;;;;;5.90;1.92;;;;;;;;;;5089562;28;20016;-69
2022/06/22 07:23:10;;;;;;;4.38;2.00;;;;;;;;;;5089343;28;20016;-68
2022/06/22 07:25:43;;;;;;;5.50;1.80;;;;;;;;;;5087470;28;20013;-69
2022/06/22 07:28:28;;;;;;;5.93;2.10;;;;;;;;;;5091414;28;20019;-68
2022/06/22 07:31:00;;;;;;;6.47;2.75;;;;;;;;;;5091962;28;20075;-68
2022/06/22 07:33:31;;;;;;;6.47;1.98;;;;;;;;;;5087163;28;20069;-68
2022/06/22 07:35:59;;;;;;;8.30;2.20;;;;;;;;;;5087123;28;20400;-69
2022/06/22 07:38:43;;;;;;;3.97;2.20;;;;;;;;;;5091624;28;20407;-68
2022/06/22 07:41:20;;;;;;;4.97;2.05;;;;;;;;;;5077904;28;20047;-69
2022/06/22 07:44:08;;;;;;;16.98;3.28;;;;;;;;;;5086791;28;20008;-69
2022/06/22 07:47:05;;;;;;;5.85;2.47;;;;;;;;;;5080440;28;20077;-70
2022/06/22 07:49:34;;;;;;;4.13;2.35;;;;;;;;;;5065844;28;20139;-69
2022/06/22 07:52:04;;;;;;;10.07;3.20;;;;;;;;;;5089499;28;20073;-69
2022/06/22 07:54:32;;;;;;;11.02;2.67;;;;;;;;;;5085550;28;20073;-69
2022/06/22 07:57:12;;;;;;;8.93;3.33;;;;;;;;;;5086202;28;20012;-70
2022/06/22 07:59:37;;;;;;;;;;;;;;;;;;5089147;28;20031;-70
2022/06/22 08:02:04;;;;;;;8.30;3.03;;;;;;;;;;5091079;28;20194;-69
2022/06/22 08:04:42;;;;;;;9.90;2.90;;;;;;;;;;5090400;28;20114;-70
2022/06/22 08:07:11;;;;;;;7.18;3.35;;;;;;;;;;5090144;28;20066;-70
2022/06/22 08:09:43;;;;;;;4.95;2.55;;;;;;;;;;5087325;28;20040;-70
2022/06/22 08:12:17;;;;;;;8.60;3.38;;;;;;;;;;5089221;28;20503;-69
2022/06/22 08:14:44;;;;;;;6.70;2.38;;;;;;;;;;5087999;28;20020;-69
2022/06/22 08:17:29;;;;;;;6.03;2.45;;;;;;;;;;5079996;28;20020;-70
2022/06/22 08:19:54;;;;;;;14.07;2.53;;;;;;;;;;5081150;28;20090;-68
2022/06/22 08:22:20;;;;;;;3.53;2.33;;;;;;;;;;5090027;28;20426;-69
2022/06/22 08:24:47;;;;;;;6.63;2.50;;;;;;;;;;5085746;28;20656;-69
2022/06/22 08:27:20;;;;;;;13.73;3.38;;;;;;;;;;5089638;28;20073;-69
2022/06/22 08:29:46;;;;;;;3.95;2.17;;;;;;;;;;5087616;28;20069;-69
2022/06/22 08:32:17;;;;;;;7.45;2.65;;;;;;;;;;5089583;28;20035;-69
2022/06/22 08:34:45;;;;;;;4.05;2.40;;;;;;;;;;5090166;28;20046;-70
2022/06/22 08:37:17;;;;;;;8.65;2.50;;;;;;;;;;5089513;28;20020;-69
2022/06/22 08:39:52;;;;;;;8.38;2.50;;;;;;;;;;5087000;28;20016;-69
2022/06/22 08:42:35;;;;;;;5.85;2.25;;;;;;;;;;5090639;28;20102;-70
2022/06/22 08:45:19;;;;;;;12.90;3.30;;;;;;;;;;5066511;28;20018;-69
2022/06/22 08:48:05;;;;;;;4.35;2.30;;;;;;;;;;5089215;28;20020;-69
2022/06/22 08:50:53;;;;;;;4.32;2.20;;;;;;;;;;5085357;28;20468;-69
2022/06/22 08:53:34;;;;;;;6.20;2.17;;;;;;;;;;5087775;28;20028;-70
2022/06/22 08:56:07;;;;;;;7.10;2.90;;;;;;;;;;5088966;28;20116;-69
2022/06/22 08:58:52;;;;;;;5.22;1.83;;;;;;;;;;5086988;28;20024;-69
2022/06/22 09:01:32;;;;;;;8.10;3.17;;;;;;;;;;5089759;28;20136;-69
2022/06/22 09:04:16;;;;;;;5.15;2.17;;;;;;;;;;5085154;28;20020;-69
2022/06/22 09:07:00;;;;;;;8.25;2.25;;;;;;;;;;5087898;28;20213;-71
2022/06/22 09:09:31;;;;;;;4.05;1.70;;;;;;;;;;5090491;28;20016;-70
2022/06/22 09:11:59;;;;;;;8.32;2.33;;;;;;;;;;5082393;28;20016;-70
2022/06/22 09:14:24;;;;;;;6.10;1.83;;;;;;;;;;5085949;28;20016;-69
2022/06/22 09:16:59;;;;;;;6.40;2.10;;;;;;;;;;5090276;28;20088;-69
2022/06/22 09:19:36;;;;;;;5.65;2.70;;;;;;;;;;5090504;28;20016;-70
2022/06/22 09:22:12;;;;;;;3.80;1.77;;;;;;;;;;5084457;28;20024;-69
2022/06/22 09:24:40;;;;;;;7.28;2.05;;;;;;;;;;5084089;28;20027;-69
2022/06/22 09:27:16;;;;;;;10.00;3.40;;;;;;;;;;5086924;28;20718;-70
2022/06/22 09:29:51;;;;;;;6.63;2.67;;;;;;;;;;5088280;28;20024;-69
2022/06/22 09:32:35;;;;;;;7.50;1.65;;;;;;;;;;5089459;28;20495;-69
2022/06/22 09:35:00;;;;;;;10.65;1.65;;;;;;;;;;5085726;28;20059;-70
2022/06/22 09:37:35;;;;;;;6.47;2.53;;;;;;;;;;5084752;28;20040;-69
2022/06/22 09:40:18;;;;;;;3.58;1.55;;;;;;;;;;5081322;28;20426;-69
2022/06/22 09:43:16;;;;;;;11.95;1.77;;;;;;;;;;5088745;28;20368;-69
2022/06/22 09:45:52;;;;;;;9.25;1.58;;;;;;;;;;5043166;28;20047;-69
2022/06/22 09:48:26;;;;;;;5.18;1.60;;;;;;;;;;5086703;28;20494;-69
2022/06/22 09:51:01;;;;;;;6.32;1.70;;;;;;;;;;5088282;28;20504;-69
2022/06/22 09:53:37;;;;;;;2.20;1.60;;;;;;;;;;5082280;28;20016;-69
2022/06/22 09:56:27;;;;;;;9.00;2.30;;;;;;;;;;5087084;28;20042;-69
2022/06/22 09:58:52;;;;;;;;;;;;;;;;;;5086247;28;20024;-69
2022/06/22 10:01:17;;;;;;;8.18;1.77;;;;;;;;;;5086140;28;19912;-69
2022/06/22 10:03:57;;;;;;;3.70;1.97;;;;;;;;;;5089813;28;20406;-69
2022/06/22 10:06:44;;;;;;;2.83;1.58;;;;;;;;;;5083715;28;20269;-69
2022/06/22 10:09:18;;;;;;;5.32;1.85;;;;;;;;;;5079048;28;20044;-69
2022/06/22 10:11:46;;;;;;;5.38;1.42;;;;;;;;;;5083878;28;20491;-69
2022/06/22 10:14:31;;;;;;;6.95;1.77;;;;;;;;;;5087964;28;20024;-70
2022/06/22 10:17:01;;;;;;;6.05;2.30;;;;;;;;;;5087275;28;20024;-69
2022/06/22 10:19:26;;;;;;;5.18;1.98;;;;;;;;;;5086507;28;20020;-69
2022/06/22 10:22:03;;;;;;;4.43;1.80;;;;;;;;;;5086285;28;20099;-69
2022/06/22 10:24:35;;;;;;;5.40;2.40;;;;;;;;;;5090634;28;20028;-71
2022/06/22 10:27:19;;;;;;;7.20;2.17;;;;;;;;;;5087746;28;20016;-70
2022/06/22 10:29:55;;;;;;;6.25;2.30;;;;;;;;;;5091625;28;20525;-72
2022/06/22 10:32:36;;;;;;;6.68;2.20;;;;;;;;;;5088851;28;20012;-70
2022/06/22 10:35:14;;;;;;;4.65;1.73;;;;;;;;;;5067301;28;20107;-69
2022/06/22 10:37:39;;;;;;;3.80;1.98;;;;;;;;;;5088525;28;20030;-70
2022/06/22 10:45:08;;;;;;;8.33;1.77;;;;;;;;;;5088098;28;20028;-69
2022/06/22 10:45:58;;;;;;;2.97;1.40;;;;;;;;;;5091353;28;20494;-69
2022/06/22 10:48:35;;;;;;;6.70;2.85;;;;;;;;;;5088350;28;20016;-71
2022/06/22 10:51:00;;;;;;;5.85;1.98;;;;;;;;;;5083911;28;20103;-69
2022/06/22 10:53:44;;;;;;;2.88;1.50;;;;;;;;;;5086626;28;20099;-70
2022/06/22 10:56:10;;;;;;;10.13;2.03;;;;;;;;;;5068735;28;20047;-69
2022/06/22 10:58:40;;;;;;;8.00;1.97;;;;;;;;;;5089492;28;20020;-70
2022/06/22 11:01:16;;;;;;;5.47;2.13;;;;;;;;;;5092071;28;20255;-70
2022/06/22 11:03:42;;;;;;;4.05;1.70;;;;;;;;;;5088322;28;20169;-69
2022/06/22 11:06:10;;;;;;;6.00;2.15;;;;;;;;;;5090902;28;20413;-69
2022/06/22 11:08:54;;;;;;;2.45;1.67;;;;;;;;;;5072001;28;20020;-69
2022/06/22 11:11:42;;;;;;;4.45;1.70;;;;;;;;;;5090062;28;20431;-69
2022/06/22 11:14:26;;;;;;;6.75;1.73;;;;;;;;;;5072250;28;20516;-69
2022/06/22 11:17:03;;;;;;;3.10;1.70;;;;;;;;;;5090695;28;20028;-69
2022/06/22 11:19:34;;;;;;;3.85;1.55;;;;;;;;;;5083933;28;20028;-69
2022/06/22 11:22:14;;;;;;;3.00;1.40;;;;;;;;;;5086986;28;20016;-69
2022/06/22 11:24:39;;;;;;;;;;;;;;;;;;5091370;28;20073;-69
2022/06/22 11:32:52;;;;;;;3.35;1.40;;;;;;;;;;5085866;28;20085;-69
2022/06/22 11:35:29;;;;;;;7.70;1.80;;;;;;;;;;5082945;28;20048;-69
2022/06/22 11:38:13;;;;;;;3.33;1.38;;;;;;;;;;5090061;28;20027;-68
2022/06/22 11:40:41;;;;;;;3.13;1.77;;;;;;;;;;5089404;28;20376;-69
2022/06/22 11:43:25;;;;;;;5.35;1.83;;;;;;;;;;5088103;28;20016;-69
2022/06/22 11:46:07;;;;;;;3.60;1.70;;;;;;;;;;5091266;28;20016;-69
2022/06/22 11:48:56;;;;;;;3.65;1.80;;;;;;;;;;5082311;28;20028;-69
2022/06/22 11:51:33;;;;;;;4.00;1.70;;;;;;;;;;5081209;28;20023;-69
2022/06/22 11:54:05;;;;;;;2.70;1.63;;;;;;;;;;5073626;28;20415;-69
2022/06/22 11:57:01;;;;;;;6.53;1.80;;;;;;;;;;5090679;28;20028;-69
2022/06/22 11:59:44;;;;;;;4.00;1.50;;;;;;;;;;5049809;28;20036;-69
2022/06/22 12:02:23;;;;;;;4.88;2.05;;;;;;;;;;5085567;28;20073;-69
2022/06/22 12:05:03;;;;;;;4.13;1.60;;;;;;;;;;5087649;28;20035;-69
2022/06/22 12:07:36;;;;;;;2.33;1.40;;;;;;;;;;5090474;28;20015;-69
2022/06/22 12:10:20;;;;;;;8.50;2.13;;;;;;;;;;5085909;28;20039;-69
2022/06/22 12:13:00;;;;;;;3.92;1.70;;;;;;;;;;5085676;28;20024;-69
2022/06/22 12:15:34;;;;;;;5.95;1.50;;;;;;;;;;5087775;28;20050;-69
2022/06/22 12:18:18;;;;;;;6.45;1.90;;;;;;;;;;5088133;28;20028;-69
2022/06/22 12:21:02;;;;;;;5.28;1.50;;;;;;;;;;5088476;28;20039;-69
2022/06/22 12:23:33;;;;;;;5.18;1.70;;;;;;;;;;5081566;28;20021;-69
2022/06/22 12:25:58;;;;;;;2.58;1.15;;;;;;;;;;5083988;28;20020;-69
2022/06/22 12:28:26;;;;;;;3.63;1.98;;;;;;;;;;5090036;28;20488;-69
2022/06/22 12:31:03;;;;;;;6.70;1.77;;;;;;;;;;5089402;28;20026;-69
2022/06/22 12:33:36;;;;;;;2.42;1.58;;;;;;;;;;5087563;28;20543;-69
2022/06/22 12:36:07;;;;;;;3.00;1.40;;;;;;;;;;5083944;28;20032;-69
2022/06/22 12:38:53;;;;;;;2.92;1.80;;;;;;;;;;5090516;28;20018;-69
2022/06/22 12:41:36;;;;;;;2.63;1.65;;;;;;;;;;5088186;28;20031;-69
2022/06/22 12:44:02;;;;;;;8.05;1.80;;;;;;;;;;5085864;28;20020;-69
2022/06/22 12:46:34;;;;;;;2.60;1.38;;;;;;;;;;5086870;28;20094;-69
2022/06/22 12:49:21;;;;;;;3.05;1.55;;;;;;;;;;5088052;28;20380;-69
2022/06/22 12:51:49;;;;;;;4.82;1.35;;;;;;;;;;5088042;28;20429;-69
2022/06/22 12:54:14;;;;;;;4.65;1.60;;;;;;;;;;5082697;28;20414;-69
2022/06/22 12:56:43;;;;;;;3.83;1.50;;;;;;;;;;5087141;28;20032;-69
2022/06/22 12:59:26;;;;;;;13.75;1.85;;;;;;;;;;5090745;28;20020;-70
2022/06/22 13:01:52;;;;;;;6.28;1.60;;;;;;;;;;5072519;28;20015;-70
2022/06/22 13:04:22;;;;;;;3.72;1.55;;;;;;;;;;5089543;28;20024;-71
2022/06/22 13:06:49;;;;;;;5.43;1.45;;;;;;;;;;5088210;28;20099;-70
2022/06/22 13:09:14;;;;;;;3.90;2.00;;;;;;;;;;5085064;28;20032;-73
2022/06/22 13:11:40;;;;;;;12.10;1.60;;;;;;;;;;5085687;28;20346;-70
2022/06/22 13:14:05;;;;;;;2.40;1.20;;;;;;;;;;5090818;28;20047;-70
2022/06/22 13:16:33;;;;;;;5.23;1.60;;;;;;;;;;5088463;28;20064;-70
2022/06/22 13:19:05;;;;;;;2.30;1.50;;;;;;;;;;5089008;28;20016;-70
2022/06/22 13:21:34;;;;;;;3.72;1.35;;;;;;;;;;5086225;28;20026;-70
2022/06/22 13:23:59;;;;;;;3.80;1.27;;;;;;;;;;5082551;28;20020;-71
2022/06/22 13:26:24;;;;;;;2.53;1.40;;;;;;;;;;5087539;28;20236;-71
2022/06/22 13:29:09;;;;;;;4.47;1.50;;;;;;;;;;5088938;28;20028;-71
2022/06/22 13:31:38;;;;;;;7.30;1.60;;;;;;;;;;5085072;28;20059;-71
2022/06/22 13:34:06;;;;;;;8.27;2.03;;;;;;;;;;5087956;28;20091;-71
2022/06/22 13:36:37;;;;;;;7.03;1.77;;;;;;;;;;5086700;28;20322;-71
2022/06/22 13:39:13;;;;;;;4.05;1.52;;;;;;;;;;5082710;28;20023;-71
2022/06/22 13:41:51;;;;;;;7.95;1.90;;;;;;;;;;5087694;28;20534;-71
2022/06/22 13:44:28;;;;;;;5.22;1.70;;;;;;;;;;5088779;28;20027;-71
2022/06/22 13:47:05;;;;;;;3.22;1.40;;;;;;;;;;5088511;28;20020;-71
2022/06/22 13:49:37;;;;;;;9.68;1.73;;;;;;;;;;5084447;28;20020;-71
2022/06/22 13:52:15;;;;;;;7.03;1.55;;;;;;;;;;5083096;28;20110;-71
2022/06/22 13:54:46;;;;;;;5.80;1.77;;;;;;;;;;5085270;28;20157;-71
2022/06/22 13:57:30;;;;;;;7.85;1.65;;;;;;;;;;5086832;28;20024;-71
2022/06/22 13:59:55;;;;;;;3.38;2.00;;;;;;;;;;5073677;28;20465;-71
2022/06/22 14:02:26;;;;;;;3.83;1.63;;;;;;;;;;5074158;28;20060;-71
2022/06/22 14:05:00;;;;;;;4.45;1.65;;;;;;;;;;5088840;28;20487;-71
2022/06/22 14:07:29;;;;;;;8.07;1.90;;;;;;;;;;5066811;28;20035;-71
2022/06/22 14:09:58;;;;;;;1.90;1.30;;;;;;;;;;5088703;28;20040;-71
2022/06/22 14:12:26;;;;;;;8.23;1.65;;;;;;;;;;5089170;28;20025;-71
2022/06/22 14:14:51;;;;;;;3.17;1.13;;;;;;;;;;5092543;28;20035;-71
2022/06/22 14:17:22;;;;;;;5.05;1.67;;;;;;;;;;5090178;28;20020;-71
2022/06/22 14:19:56;;;;;;;6.50;2.25;;;;;;;;;;5089799;28;20060;-71
2022/06/22 14:22:28;;;;;;;6.00;1.27;;;;;;;;;;5084071;28;20012;-71
2022/06/22 14:24:55;;;;;;;3.47;1.42;;;;;;;;;;5089826;28;20021;-71
2022/06/22 14:27:34;;;;;;;4.72;1.50;;;;;;;;;;5087657;28;20509;-71
2022/06/22 14:30:05;;;;;;;3.85;1.50;;;;;;;;;;5087958;28;20027;-71
2022/06/22 14:32:33;;;;;;;7.72;1.60;;;;;;;;;;5075268;28;20024;-71
2022/06/22 14:35:19;;;;;;;7.90;1.80;;;;;;;;;;5091008;28;20012;-71
2022/06/22 14:37:50;;;;;;;4.72;1.65;;;;;;;;;;5035726;28;20036;-71
2022/06/22 14:40:18;;;;;;;2.80;1.63;;;;;;;;;;5089155;28;20071;-71
2022/06/22 14:42:52;;;;;;;4.30;1.40;;;;;;;;;;5089569;28;20023;-71
2022/06/22 14:45:27;;;;;;;3.17;1.40;;;;;;;;;;5087948;28;20535;-71
2022/06/22 14:48:11;;;;;;;4.55;1.55;;;;;;;;;;5091527;28;20019;-71
2022/06/22 14:50:41;;;;;;;5.38;1.77;;;;;;;;;;5085651;28;20023;-71
2022/06/22 14:53:12;;;;;;;2.28;1.17;;;;;;;;;;5092518;28;20416;-71
2022/06/22 14:55:59;;;;;;;3.78;1.67;;;;;;;;;;5091352;28;20032;-71
2022/06/22 14:58:30;;;;;;;5.07;1.63;;;;;;;;;;5084156;28;20394;-71
2022/06/22 15:01:02;;;;;;;6.15;1.88;;;;;;;;;;5088114;28;20026;-71
2022/06/22 15:03:36;;;;;;;3.15;1.50;;;;;;;;;;5090803;28;20016;-69
2022/06/22 15:06:16;;;;;;;5.05;1.58;;;;;;;;;;5090432;28;20055;-69
2022/06/22 15:08:56;;;;;;;5.93;1.35;;;;;;;;;;5092709;28;20644;-69
2022/06/22 15:14:23;;;;;;;3.95;1.80;;;;;;;;;;5082441;28;20228;-69
2022/06/22 15:16:55;;;;;;;2.80;1.40;;;;;;;;;;5090604;28;20103;-69
2022/06/22 15:19:30;;;;;;;2.13;1.08;;;;;;;;;;5084821;28;20036;-69
2022/06/22 15:22:00;;;;;;;2.85;1.50;;;;;;;;;;5085598;28;20153;-69
2022/06/22 15:24:48;;;;;;;2.28;1.10;;;;;;;;;;5091726;28;20042;-69
2022/06/22 15:27:21;;;;;;;2.38;1.40;;;;;;;;;;5042119;28;20040;-69
2022/06/22 15:29:56;;;;;;;3.20;1.55;;;;;;;;;;5090012;28;20111;-69
2022/06/22 15:32:25;;;;;;;5.40;1.40;;;;;;;;;;5084613;28;20020;-69
2022/06/22 15:34:56;;;;;;;3.60;1.52;;;;;;;;;;5089927;28;20024;-69
2022/06/22 15:37:27;;;;;;;4.20;1.60;;;;;;;;;;5087741;28;20116;-69